createdAt,value
2023-03-20T00:00:50.985Z,8.15
2023-03-20T00:01:50.946Z,8.03
2023-03-20T00:02:50.925Z,7.99
2023-03-20T00:03:51.101Z,8.25
2023-03-20T00:04:51.098Z,8.42
2023-03-20T00:05:50.862Z,8.36
2023-03-20T00:06:50.809Z,8.33
2023-03-20T00:07:50.786Z,8.33
2023-03-20T00:08:50.756Z,8.39
2023-03-20T00:09:50.735Z,8.45
2023-03-20T00:10:50.760Z,8.55
2023-03-20T00:11:50.700Z,8.53
2023-03-20T00:12:50.668Z,8.63
2023-03-20T00:13:50.637Z,8.58
2023-03-20T00:14:50.604Z,8.58
2023-03-20T00:15:50.641Z,8.57
2023-03-20T00:16:50.590Z,8.58
2023-03-20T00:17:50.535Z,8.37
2023-03-20T00:18:50.522Z,8.44
2023-03-20T00:19:50.489Z,8.45
2023-03-20T00:20:50.461Z,8.62
2023-03-20T00:21:50.448Z,8.65
2023-03-20T00:22:50.417Z,8.55
2023-03-20T00:23:50.388Z,8.68
2023-03-20T00:24:50.383Z,8.86
2023-03-20T00:25:50.340Z,8.99
2023-03-20T00:26:50.334Z,9.06
2023-03-20T00:27:50.294Z,9.12
2023-03-20T00:28:50.255Z,9.23
2023-03-20T00:29:50.246Z,9.21
2023-03-20T00:30:50.212Z,9.13
2023-03-20T00:31:50.318Z,9.06
2023-03-20T00:32:50.186Z,9.06
2023-03-20T00:33:50.153Z,8.90
2023-03-20T00:34:50.116Z,8.90
2023-03-20T00:35:50.115Z,8.84
2023-03-20T00:36:50.068Z,8.76
2023-03-20T00:37:50.085Z,8.73
2023-03-20T00:38:50.019Z,8.78
2023-03-20T00:39:50.000Z,8.93
2023-03-20T00:40:49.970Z,8.97
2023-03-20T00:41:49.958Z,8.99
2023-03-20T00:42:49.939Z,8.99
2023-03-20T00:43:49.907Z,9.01
2023-03-20T00:44:49.899Z,9.01
2023-03-20T00:45:49.861Z,8.99
2023-03-20T00:46:49.856Z,8.99
2023-03-20T00:47:49.804Z,8.91
2023-03-20T00:48:49.771Z,9.04
2023-03-20T00:49:49.757Z,8.97
2023-03-20T00:50:49.823Z,8.86
2023-03-20T00:51:49.703Z,8.88
2023-03-20T00:52:49.673Z,8.96
2023-03-20T00:53:49.657Z,8.87
2023-03-20T00:54:49.643Z,8.88
2023-03-20T00:55:49.606Z,9.10
2023-03-20T00:56:49.583Z,9.23
2023-03-20T00:57:49.575Z,9.27
2023-03-20T00:58:49.530Z,9.40
2023-03-20T00:59:49.512Z,9.56
2023-03-20T01:00:49.530Z,9.60
2023-03-20T01:01:49.528Z,9.70
2023-03-20T01:02:49.448Z,9.85
2023-03-20T01:03:49.413Z,9.94
2023-03-20T01:04:49.393Z,9.96
2023-03-20T01:05:49.368Z,9.85
2023-03-20T01:06:49.339Z,9.94
2023-03-20T01:07:49.350Z,9.97
2023-03-20T01:08:49.315Z,9.94
2023-03-20T01:09:49.264Z,9.97
2023-03-20T01:10:49.242Z,10.00
2023-03-20T01:11:49.217Z,9.97
2023-03-20T01:12:49.189Z,10.06
2023-03-20T01:13:49.165Z,10.03
2023-03-20T01:14:49.147Z,10.14
2023-03-20T01:15:49.143Z,10.04
2023-03-20T01:16:49.208Z,10.15
2023-03-20T01:17:49.076Z,10.06
2023-03-20T01:18:49.043Z,10.07
2023-03-20T01:19:49.020Z,10.10
2023-03-20T01:20:48.995Z,10.09
2023-03-20T01:21:48.972Z,10.14
2023-03-20T01:22:48.962Z,10.09
2023-03-20T01:23:48.931Z,10.09
2023-03-20T01:24:48.899Z,10.04
2023-03-20T01:25:48.955Z,10.04
2023-03-20T01:26:48.856Z,10.04
2023-03-20T01:27:48.832Z,10.07
2023-03-20T01:28:48.797Z,10.09
2023-03-20T01:29:48.782Z,10.06
2023-03-20T01:30:48.766Z,9.99
2023-03-20T01:31:48.838Z,10.07
2023-03-20T01:32:48.724Z,10.00
2023-03-20T01:33:48.691Z,10.06
2023-03-20T01:34:48.655Z,10.06
2023-03-20T01:35:48.688Z,10.07
2023-03-20T01:36:48.612Z,10.12
2023-03-20T01:37:48.594Z,10.09
2023-03-20T01:38:48.570Z,10.09
2023-03-20T01:39:48.548Z,10.18
2023-03-20T01:40:48.512Z,10.24
2023-03-20T01:41:48.492Z,10.24
2023-03-20T01:42:48.474Z,10.12
2023-03-20T01:43:48.445Z,10.10
2023-03-20T01:44:48.428Z,10.25
2023-03-20T01:45:48.432Z,10.24
2023-03-20T01:46:48.379Z,10.15
2023-03-20T01:47:48.355Z,10.25
2023-03-20T01:48:48.331Z,10.22
2023-03-20T01:49:48.310Z,10.19
2023-03-20T01:50:48.293Z,10.24
2023-03-20T01:51:48.259Z,10.25
2023-03-20T01:52:48.240Z,10.18
2023-03-20T01:53:48.221Z,10.21
2023-03-20T01:54:48.189Z,10.15
2023-03-20T01:55:48.164Z,10.25
2023-03-20T01:56:48.148Z,10.19
2023-03-20T01:57:48.114Z,10.30
2023-03-20T01:58:48.121Z,10.36
2023-03-20T01:59:48.071Z,10.33
2023-03-20T02:00:48.102Z,10.19
2023-03-20T02:01:48.024Z,10.24
2023-03-20T02:02:47.995Z,10.22
2023-03-20T02:03:48.012Z,10.28
2023-03-20T02:04:48.036Z,10.26
2023-03-20T02:05:47.934Z,10.28
2023-03-20T02:06:47.902Z,10.28
2023-03-20T02:07:47.894Z,10.28
2023-03-20T02:08:47.894Z,10.28
2023-03-20T02:09:47.844Z,10.26
2023-03-20T02:10:47.802Z,10.28
2023-03-20T02:11:47.789Z,10.32
2023-03-20T02:12:47.758Z,10.36
2023-03-20T02:13:47.736Z,10.30
2023-03-20T02:14:47.713Z,10.39
2023-03-20T02:15:47.692Z,10.33
2023-03-20T02:16:47.693Z,10.32
2023-03-20T02:17:47.644Z,10.32
2023-03-20T02:18:47.685Z,10.42
2023-03-20T02:19:47.594Z,10.34
2023-03-20T02:20:47.571Z,10.40
2023-03-20T02:21:47.544Z,10.37
2023-03-20T02:22:47.532Z,10.39
2023-03-20T02:23:47.496Z,10.36
2023-03-20T02:24:47.479Z,10.43
2023-03-20T02:25:47.448Z,10.40
2023-03-20T02:26:47.417Z,10.52
2023-03-20T02:27:47.405Z,10.47
2023-03-20T02:28:47.391Z,10.47
2023-03-20T02:29:47.373Z,10.44
2023-03-20T02:30:47.420Z,10.47
2023-03-20T02:31:47.310Z,10.36
2023-03-20T02:32:47.332Z,10.40
2023-03-20T02:33:47.261Z,10.44
2023-03-20T02:34:47.249Z,10.42
2023-03-20T02:35:47.269Z,10.42
2023-03-20T02:36:47.188Z,10.40
2023-03-20T02:37:47.166Z,10.30
2023-03-20T02:38:47.145Z,10.43
2023-03-20T02:39:47.117Z,10.40
2023-03-20T02:40:47.087Z,10.42
2023-03-20T02:41:47.167Z,10.34
2023-03-20T02:42:47.040Z,10.44
2023-03-20T02:43:47.041Z,10.42
2023-03-20T02:44:46.993Z,10.40
2023-03-20T02:45:46.988Z,10.34
2023-03-20T02:46:46.956Z,10.39
2023-03-20T02:47:46.930Z,10.36
2023-03-20T02:48:46.894Z,10.46
2023-03-20T02:49:46.878Z,10.34
2023-03-20T02:50:46.862Z,10.43
2023-03-20T02:51:46.844Z,10.33
2023-03-20T02:52:46.806Z,10.34
2023-03-20T02:53:46.783Z,10.36
2023-03-20T02:54:46.760Z,10.40
2023-03-20T02:55:46.754Z,10.32
2023-03-20T02:56:46.708Z,10.37
2023-03-20T02:57:46.693Z,10.30
2023-03-20T02:58:46.659Z,10.32
2023-03-20T02:59:46.644Z,10.34
2023-03-20T03:00:46.624Z,10.37
2023-03-20T03:01:46.633Z,10.32
2023-03-20T03:02:46.633Z,10.40
2023-03-20T03:03:46.552Z,10.33
2023-03-20T03:04:46.524Z,10.32
2023-03-20T03:05:46.504Z,10.32
2023-03-20T03:06:46.502Z,10.34
2023-03-20T03:07:46.455Z,10.40
2023-03-20T03:08:46.423Z,10.33
2023-03-20T03:09:46.411Z,10.42
2023-03-20T03:10:46.387Z,10.43
2023-03-20T03:11:46.357Z,10.42
2023-03-20T03:12:46.334Z,10.47
2023-03-20T03:13:46.311Z,10.47
2023-03-20T03:14:46.285Z,10.44
2023-03-20T03:15:46.350Z,10.51
2023-03-20T03:16:46.236Z,10.44
2023-03-20T03:17:46.239Z,10.46
2023-03-20T03:18:46.185Z,10.42
2023-03-20T03:19:46.192Z,10.36
2023-03-20T03:20:46.140Z,10.36
2023-03-20T03:21:46.125Z,10.33
2023-03-20T03:22:46.097Z,10.46
2023-03-20T03:23:46.075Z,10.40
2023-03-20T03:24:46.042Z,10.37
2023-03-20T03:25:46.022Z,10.30
2023-03-20T03:26:46.009Z,10.36
2023-03-20T03:27:45.992Z,10.40
2023-03-20T03:28:45.974Z,10.32
2023-03-20T03:29:45.941Z,10.34
2023-03-20T03:30:45.913Z,10.34
2023-03-20T03:31:45.890Z,10.32
2023-03-20T03:32:45.900Z,10.33
2023-03-20T03:33:45.854Z,10.32
2023-03-20T03:34:45.828Z,10.26
2023-03-20T03:35:45.851Z,10.33
2023-03-20T03:36:45.762Z,10.33
2023-03-20T03:37:45.754Z,10.21
2023-03-20T03:38:45.716Z,10.30
2023-03-20T03:39:45.761Z,10.24
2023-03-20T03:40:45.671Z,10.21
2023-03-20T03:41:45.642Z,10.21
2023-03-20T03:42:45.620Z,10.19
2023-03-20T03:43:45.596Z,10.22
2023-03-20T03:44:45.569Z,10.26
2023-03-20T03:45:45.562Z,10.19
2023-03-20T03:46:45.569Z,10.17
2023-03-20T03:47:45.502Z,10.21
2023-03-20T03:48:45.487Z,10.24
2023-03-20T03:49:45.450Z,10.21
2023-03-20T03:50:45.450Z,10.18
2023-03-20T03:51:45.401Z,10.19
2023-03-20T03:52:45.379Z,10.10
2023-03-20T03:53:45.347Z,10.09
2023-03-20T03:54:45.347Z,10.14
2023-03-20T03:55:45.331Z,10.17
2023-03-20T03:56:45.306Z,10.15
2023-03-20T03:57:45.261Z,10.06
2023-03-20T03:58:45.243Z,10.12
2023-03-20T03:59:45.208Z,10.17
2023-03-20T04:00:45.190Z,10.12
2023-03-20T04:01:45.201Z,10.07
2023-03-20T04:02:45.154Z,10.09
2023-03-20T04:03:45.125Z,10.07
2023-03-20T04:04:45.171Z,10.12
2023-03-20T04:05:45.069Z,10.09
2023-03-20T04:06:45.049Z,10.14
2023-03-20T04:07:45.023Z,10.14
2023-03-20T04:08:45.002Z,10.15
2023-03-20T04:09:44.975Z,10.10
2023-03-20T04:10:44.965Z,10.17
2023-03-20T04:11:44.952Z,10.07
2023-03-20T04:12:44.922Z,10.24
2023-03-20T04:13:44.932Z,10.26
2023-03-20T04:14:44.877Z,10.22
2023-03-20T04:15:44.832Z,10.22
2023-03-20T04:16:44.818Z,10.28
2023-03-20T04:17:44.799Z,10.17
2023-03-20T04:18:44.763Z,10.14
2023-03-20T04:19:44.745Z,10.21
2023-03-20T04:20:44.739Z,10.24
2023-03-20T04:21:44.703Z,10.22
2023-03-20T04:22:44.684Z,10.17
2023-03-20T04:23:44.652Z,10.28
2023-03-20T04:24:44.625Z,10.21
2023-03-20T04:25:44.604Z,10.24
2023-03-20T04:26:44.640Z,10.33
2023-03-20T04:27:44.548Z,10.19
2023-03-20T04:28:44.531Z,10.30
2023-03-20T04:29:44.514Z,10.33
2023-03-20T04:30:44.489Z,10.28
2023-03-20T04:31:44.518Z,10.33
2023-03-20T04:32:44.471Z,10.26
2023-03-20T04:33:44.493Z,10.37
2023-03-20T04:34:44.390Z,10.33
2023-03-20T04:35:44.405Z,10.33
2023-03-20T04:36:44.338Z,10.32
2023-03-20T04:37:44.312Z,10.32
2023-03-20T04:38:44.300Z,10.30
2023-03-20T04:39:44.261Z,10.30
2023-03-20T04:40:44.245Z,10.30
2023-03-20T04:41:44.215Z,10.32
2023-03-20T04:42:44.208Z,10.26
2023-03-20T04:43:44.194Z,10.28
2023-03-20T04:44:44.147Z,10.37
2023-03-20T04:45:44.180Z,10.28
2023-03-20T04:46:44.103Z,10.32
2023-03-20T04:47:44.083Z,10.33
2023-03-20T04:48:44.058Z,10.26
2023-03-20T04:49:44.028Z,10.33
2023-03-20T04:50:44.009Z,10.28
2023-03-20T04:51:43.979Z,10.32
2023-03-20T04:52:43.962Z,10.30
2023-03-20T04:53:43.958Z,10.37
2023-03-20T04:54:43.917Z,10.34
2023-03-20T04:55:43.884Z,10.36
2023-03-20T04:56:43.866Z,10.40
2023-03-20T04:57:43.884Z,10.43
2023-03-20T04:58:43.816Z,10.40
2023-03-20T04:59:43.795Z,10.34
2023-03-20T05:00:43.791Z,10.44
2023-03-20T05:01:43.760Z,10.34
2023-03-20T05:02:43.725Z,10.34
2023-03-20T05:03:43.738Z,10.34
2023-03-20T05:04:43.692Z,10.37
2023-03-20T05:05:43.651Z,10.36
2023-03-20T05:06:43.638Z,10.32
2023-03-20T05:07:43.705Z,10.40
2023-03-20T05:08:43.588Z,10.37
2023-03-20T05:09:43.560Z,10.46
2023-03-20T05:10:43.537Z,10.39
2023-03-20T05:11:43.507Z,10.42
2023-03-20T05:12:43.491Z,10.42
2023-03-20T05:13:43.462Z,10.42
2023-03-20T05:14:43.474Z,10.37
2023-03-20T05:15:43.428Z,10.37
2023-03-20T05:16:43.480Z,10.46
2023-03-20T05:17:43.372Z,10.46
2023-03-20T05:18:43.344Z,10.53
2023-03-20T05:19:43.331Z,10.43
2023-03-20T05:20:43.306Z,10.44
2023-03-20T05:21:43.268Z,10.51
2023-03-20T05:22:43.250Z,10.51
2023-03-20T05:23:43.216Z,10.53
2023-03-20T05:24:43.195Z,10.40
2023-03-20T05:25:43.170Z,10.40
2023-03-20T05:26:43.150Z,10.39
2023-03-20T05:27:43.135Z,10.60
2023-03-20T05:28:43.104Z,10.46
2023-03-20T05:29:43.096Z,10.52
2023-03-20T05:30:43.166Z,10.53
2023-03-20T05:31:43.043Z,10.52
2023-03-20T05:32:43.027Z,10.52
2023-03-20T05:33:42.997Z,10.51
2023-03-20T05:34:42.963Z,10.55
2023-03-20T05:35:42.990Z,10.46
2023-03-20T05:36:42.910Z,10.46
2023-03-20T05:37:42.912Z,10.44
2023-03-20T05:38:42.877Z,10.56
2023-03-20T05:39:42.858Z,10.47
2023-03-20T05:40:42.815Z,10.46
2023-03-20T05:41:45.350Z,10.39
2023-03-20T05:42:42.767Z,10.46
2023-03-20T05:43:42.742Z,10.55
2023-03-20T05:44:42.720Z,10.51
2023-03-20T05:45:42.698Z,10.59
2023-03-20T05:46:42.696Z,10.58
2023-03-20T05:47:42.655Z,10.55
2023-03-20T05:48:42.631Z,10.43
2023-03-20T05:49:42.599Z,10.43
2023-03-20T05:50:42.584Z,10.51
2023-03-20T05:51:42.565Z,10.58
2023-03-20T05:52:42.535Z,10.52
2023-03-20T05:53:42.510Z,10.52
2023-03-20T05:54:42.510Z,10.55
2023-03-20T05:55:42.459Z,10.53
2023-03-20T05:56:42.456Z,10.51
2023-03-20T05:57:42.412Z,10.51
2023-03-20T05:58:42.405Z,10.56
2023-03-20T05:59:42.375Z,10.58
2023-03-20T06:00:42.347Z,10.56
2023-03-20T06:01:42.321Z,10.60
2023-03-20T06:02:42.464Z,10.60
2023-03-20T06:03:42.290Z,10.62
2023-03-20T06:04:42.255Z,10.58
2023-03-20T06:05:42.255Z,10.66
2023-03-20T06:06:42.209Z,10.71
2023-03-20T06:07:42.179Z,10.62
2023-03-20T06:08:42.162Z,10.62
2023-03-20T06:09:42.130Z,10.65
2023-03-20T06:10:42.115Z,10.70
2023-03-20T06:11:42.118Z,10.77
2023-03-20T06:12:42.072Z,10.73
2023-03-20T06:13:42.050Z,10.73
2023-03-20T06:14:42.024Z,10.70
2023-03-20T06:15:42.027Z,10.60
2023-03-20T06:16:41.979Z,10.68
2023-03-20T06:17:41.957Z,10.63
2023-03-20T06:18:41.953Z,10.70
2023-03-20T06:19:41.918Z,10.65
2023-03-20T06:20:41.884Z,10.66
2023-03-20T06:21:41.852Z,10.66
2023-03-20T06:22:41.834Z,10.66
2023-03-20T06:23:41.811Z,10.62
2023-03-20T06:24:41.785Z,10.68
2023-03-20T06:25:41.779Z,10.66
2023-03-20T06:26:41.736Z,10.62
2023-03-20T06:27:41.707Z,10.70
2023-03-20T06:28:41.700Z,10.59
2023-03-20T06:29:41.660Z,10.63
2023-03-20T06:30:41.650Z,10.66
2023-03-20T06:31:41.622Z,10.71
2023-03-20T06:32:41.629Z,10.70
2023-03-20T06:33:41.579Z,10.66
2023-03-20T06:34:41.553Z,10.66
2023-03-20T06:35:41.545Z,10.68
2023-03-20T06:36:43.978Z,10.63
2023-03-20T06:37:41.484Z,10.63
2023-03-20T06:38:41.464Z,10.60
2023-03-20T06:39:41.427Z,10.63
2023-03-20T06:40:41.409Z,10.63
2023-03-20T06:41:41.397Z,10.62
2023-03-20T06:42:41.355Z,10.62
2023-03-20T06:43:41.328Z,10.63
2023-03-20T06:44:41.318Z,10.70
2023-03-20T06:45:41.285Z,10.73
2023-03-20T06:46:41.388Z,10.76
2023-03-20T06:47:41.246Z,10.80
2023-03-20T06:48:41.217Z,10.78
2023-03-20T06:49:41.187Z,10.74
2023-03-20T06:50:41.183Z,10.77
2023-03-20T06:51:41.146Z,10.83
2023-03-20T06:52:41.134Z,10.83
2023-03-20T06:53:41.091Z,10.88
2023-03-20T06:54:41.074Z,10.81
2023-03-20T06:55:41.068Z,10.84
2023-03-20T06:56:41.026Z,10.84
2023-03-20T06:57:41.020Z,10.83
2023-03-20T06:58:40.988Z,10.86
2023-03-20T06:59:40.962Z,10.83
2023-03-20T07:00:40.956Z,10.81
2023-03-20T07:01:40.987Z,10.83
2023-03-20T07:02:40.920Z,10.81
2023-03-20T07:03:40.861Z,10.88
2023-03-20T07:04:40.872Z,10.88
2023-03-20T07:05:40.853Z,10.86
2023-03-20T07:06:40.814Z,10.88
2023-03-20T07:07:40.770Z,10.84
2023-03-20T07:08:40.774Z,10.77
2023-03-20T07:09:40.724Z,10.88
2023-03-20T07:10:40.708Z,10.84
2023-03-20T07:11:40.687Z,10.77
2023-03-20T07:12:40.663Z,10.88
2023-03-20T07:13:40.646Z,10.83
2023-03-20T07:14:40.613Z,10.78
2023-03-20T07:15:50.610Z,10.95
2023-03-20T07:16:40.642Z,10.89
2023-03-20T07:17:40.558Z,10.88
2023-03-20T07:18:40.524Z,10.91
2023-03-20T07:19:40.511Z,10.95
2023-03-20T07:20:40.490Z,10.83
2023-03-20T07:21:40.447Z,10.92
2023-03-20T07:22:40.457Z,10.92
2023-03-20T07:23:40.410Z,11.03
2023-03-20T07:24:40.388Z,10.96
2023-03-20T07:25:43.105Z,11.09
2023-03-20T07:26:40.338Z,11.06
2023-03-20T07:27:40.318Z,11.17
2023-03-20T07:28:40.291Z,11.20
2023-03-20T07:29:40.264Z,11.17
2023-03-20T07:30:40.243Z,11.17
2023-03-20T07:31:40.235Z,11.28
2023-03-20T07:32:40.242Z,11.24
2023-03-20T07:33:40.168Z,11.24
2023-03-20T07:34:40.164Z,11.21
2023-03-20T07:35:40.148Z,11.29
2023-03-20T07:36:40.105Z,11.29
2023-03-20T07:37:40.074Z,11.24
2023-03-20T07:38:40.114Z,11.21
2023-03-20T07:39:40.035Z,11.24
2023-03-20T07:40:40.015Z,11.25
2023-03-20T07:41:39.996Z,11.24
2023-03-20T07:42:39.979Z,11.29
2023-03-20T07:43:39.940Z,11.21
2023-03-20T07:44:39.915Z,11.24
2023-03-20T07:45:40.114Z,11.20
2023-03-20T07:46:39.881Z,11.20
2023-03-20T07:47:39.887Z,11.24
2023-03-20T07:48:39.831Z,11.24
2023-03-20T07:49:39.811Z,11.19
2023-03-20T07:50:39.803Z,11.16
2023-03-20T07:51:39.756Z,11.11
2023-03-20T07:52:39.730Z,11.09
2023-03-20T07:53:39.703Z,11.02
2023-03-20T07:54:39.689Z,10.99
2023-03-20T07:55:39.661Z,10.96
2023-03-20T07:56:39.641Z,10.99
2023-03-20T07:57:39.617Z,10.95
2023-03-20T07:58:39.587Z,10.95
2023-03-20T07:59:39.572Z,10.95
2023-03-20T08:00:39.544Z,10.89
2023-03-20T08:01:39.519Z,10.89
2023-03-20T08:02:39.559Z,10.98
2023-03-20T08:03:39.690Z,11.01
2023-03-20T08:04:39.446Z,10.89
2023-03-20T08:05:39.433Z,11.02
2023-03-20T08:06:39.411Z,10.99
2023-03-20T08:07:39.420Z,10.99
2023-03-20T08:08:39.372Z,11.02
2023-03-20T08:09:39.347Z,11.01
2023-03-20T08:10:39.319Z,10.99
2023-03-20T08:11:39.299Z,11.01
2023-03-20T08:12:39.274Z,11.09
2023-03-20T08:13:39.250Z,11.10
2023-03-20T08:14:39.222Z,11.14
2023-03-20T08:15:39.626Z,11.19
2023-03-20T08:16:39.204Z,11.25
2023-03-20T08:17:39.165Z,11.17
2023-03-20T08:18:39.132Z,11.24
2023-03-20T08:19:39.126Z,11.24
2023-03-20T08:20:39.085Z,11.25
2023-03-20T08:21:39.070Z,11.29
2023-03-20T08:22:39.067Z,11.39
2023-03-20T08:23:39.027Z,11.34
2023-03-20T08:24:39.010Z,11.50
2023-03-20T08:25:39.259Z,11.54
2023-03-20T08:26:38.947Z,11.56
2023-03-20T08:27:38.967Z,11.57
2023-03-20T08:28:47.843Z,11.57
2023-03-20T08:29:38.903Z,11.57
2023-03-20T08:30:38.895Z,11.62
2023-03-20T08:31:38.877Z,11.67
2023-03-20T08:32:38.890Z,11.67
2023-03-20T08:33:38.811Z,11.70
2023-03-20T08:34:38.780Z,11.64
2023-03-20T08:35:38.775Z,11.65
2023-03-20T08:36:38.736Z,11.70
2023-03-20T08:37:38.719Z,11.67
2023-03-20T08:38:38.703Z,11.75
2023-03-20T08:39:38.688Z,11.67
2023-03-20T08:40:38.677Z,11.65
2023-03-20T08:41:38.635Z,11.75
2023-03-20T08:42:38.623Z,11.65
2023-03-20T08:43:38.574Z,11.68
2023-03-20T08:44:38.550Z,11.57
2023-03-20T08:45:38.824Z,11.67
2023-03-20T08:46:38.506Z,11.65
2023-03-20T08:47:40.601Z,11.59
2023-03-20T08:48:38.475Z,11.65
2023-03-20T08:49:38.454Z,11.59
2023-03-20T08:50:38.446Z,11.68
2023-03-20T08:51:38.414Z,11.67
2023-03-20T08:52:38.370Z,11.68
2023-03-20T08:53:38.354Z,11.74
2023-03-20T08:54:38.321Z,11.72
2023-03-20T08:55:38.774Z,11.72
2023-03-20T08:56:38.282Z,11.83
2023-03-20T08:57:38.259Z,11.82
2023-03-20T08:58:38.241Z,11.75
2023-03-20T08:59:38.222Z,11.74
2023-03-20T09:00:38.201Z,11.65
2023-03-20T09:01:48.660Z,11.62
2023-03-20T09:02:38.329Z,11.68
2023-03-20T09:03:38.153Z,11.67
2023-03-20T09:04:38.100Z,11.62
2023-03-20T09:05:38.334Z,11.62
2023-03-20T09:06:38.062Z,11.61
2023-03-20T09:07:38.080Z,11.72
2023-03-20T09:08:38.017Z,11.54
2023-03-20T09:09:37.999Z,11.64
2023-03-20T09:10:37.969Z,11.61
2023-03-20T09:11:37.956Z,11.56
2023-03-20T09:12:37.934Z,11.59
2023-03-20T09:13:37.899Z,11.54
2023-03-20T09:14:37.880Z,11.54
2023-03-20T09:15:38.387Z,11.67
2023-03-20T09:16:37.915Z,11.67
2023-03-20T09:17:37.820Z,11.70
2023-03-20T09:18:37.805Z,11.70
2023-03-20T09:19:37.768Z,11.70
2023-03-20T09:20:38.291Z,11.67
2023-03-20T09:21:37.736Z,11.68
2023-03-20T09:22:37.692Z,11.68
2023-03-20T09:23:37.675Z,11.71
2023-03-20T09:24:37.817Z,11.77
2023-03-20T09:25:37.881Z,11.71
2023-03-20T09:26:37.623Z,11.65
2023-03-20T09:27:37.589Z,11.77
2023-03-20T09:28:37.587Z,11.80
2023-03-20T09:29:37.543Z,11.85
2023-03-20T09:30:37.958Z,11.80
2023-03-20T09:31:37.618Z,11.77
2023-03-20T09:32:37.494Z,11.72
2023-03-20T09:33:37.453Z,11.62
2023-03-20T09:34:37.425Z,11.72
2023-03-20T09:35:37.493Z,11.68
2023-03-20T09:36:37.399Z,11.68
2023-03-20T09:37:37.368Z,11.75
2023-03-20T09:38:37.337Z,11.70
2023-03-20T09:39:37.332Z,11.67
2023-03-20T09:40:37.606Z,11.54
2023-03-20T09:41:49.264Z,11.54
2023-03-20T09:42:37.254Z,11.38
2023-03-20T09:43:37.237Z,11.39
2023-03-20T09:44:37.210Z,11.38
2023-03-20T09:45:37.187Z,11.38
2023-03-20T09:46:37.197Z,11.36
2023-03-20T09:47:37.142Z,11.31
2023-03-20T09:48:37.111Z,11.27
2023-03-20T09:49:37.096Z,11.20
2023-03-20T09:50:37.596Z,11.21
2023-03-20T09:51:37.056Z,11.32
2023-03-20T09:52:37.037Z,11.25
2023-03-20T09:53:37.003Z,11.28
2023-03-20T09:54:52.813Z,11.34
2023-03-20T09:55:37.255Z,11.32
2023-03-20T09:56:36.931Z,11.38
2023-03-20T09:57:36.908Z,11.34
2023-03-20T09:58:36.903Z,11.34
2023-03-20T09:59:36.860Z,11.34
2023-03-20T10:00:37.094Z,11.35
2023-03-20T10:01:39.615Z,11.32
2023-03-20T10:02:36.794Z,11.31
2023-03-20T10:03:36.798Z,11.20
2023-03-20T10:04:36.774Z,11.27
2023-03-20T10:05:37.003Z,11.27
2023-03-20T10:06:36.697Z,11.29
2023-03-20T10:07:36.702Z,11.32
2023-03-20T10:08:36.690Z,11.38
2023-03-20T10:09:36.640Z,11.43
2023-03-20T10:10:36.804Z,11.43
2023-03-20T10:11:36.589Z,11.57
2023-03-20T10:12:36.562Z,11.54
2023-03-20T10:13:36.543Z,11.70
2023-03-20T10:14:36.510Z,11.80
2023-03-20T10:15:36.500Z,11.90
2023-03-20T10:16:36.608Z,11.87
2023-03-20T10:17:36.453Z,11.96
2023-03-20T10:18:36.426Z,11.85
2023-03-20T10:19:36.417Z,11.85
2023-03-20T10:20:36.818Z,11.90
2023-03-20T10:21:36.361Z,11.90
2023-03-20T10:22:36.337Z,12.02
2023-03-20T10:23:36.331Z,12.12
2023-03-20T10:24:36.306Z,12.30
2023-03-20T10:25:36.274Z,12.51
2023-03-20T10:26:36.271Z,12.77
2023-03-20T10:27:36.232Z,12.69
2023-03-20T10:28:36.207Z,13.17
2023-03-20T10:29:36.186Z,13.54
2023-03-20T10:30:36.475Z,13.47
2023-03-20T10:31:36.216Z,13.22
2023-03-20T10:32:36.225Z,13.14
2023-03-20T10:33:36.113Z,13.17
2023-03-20T10:34:36.101Z,13.20
2023-03-20T10:35:36.124Z,13.14
2023-03-20T10:36:36.066Z,13.37
2023-03-20T10:37:36.038Z,13.44
2023-03-20T10:38:36.011Z,13.40
2023-03-20T10:39:35.983Z,13.36
2023-03-20T10:40:36.255Z,13.30
2023-03-20T10:41:35.940Z,13.41
2023-03-20T10:42:35.911Z,13.44
2023-03-20T10:43:38.833Z,13.33
2023-03-20T10:44:35.878Z,13.41
2023-03-20T10:45:35.867Z,13.44
2023-03-20T10:46:35.931Z,13.54
2023-03-20T10:47:35.862Z,13.54
2023-03-20T10:48:35.858Z,13.80
2023-03-20T10:49:35.791Z,13.87
2023-03-20T10:50:36.107Z,13.95
2023-03-20T10:51:35.750Z,13.96
2023-03-20T10:52:35.746Z,14.02
2023-03-20T10:53:35.701Z,14.01
2023-03-20T10:54:35.680Z,14.13
2023-03-20T10:55:35.729Z,14.37
2023-03-20T10:56:35.649Z,14.56
2023-03-20T10:57:35.640Z,14.50
2023-03-20T10:58:35.608Z,14.52
2023-03-20T10:59:35.621Z,14.54
2023-03-20T11:00:35.882Z,14.54
2023-03-20T11:01:36.034Z,14.54
2023-03-20T11:02:35.554Z,14.38
2023-03-20T11:03:35.526Z,14.31
2023-03-20T11:04:35.575Z,14.31
2023-03-20T11:05:35.499Z,14.32
2023-03-20T11:06:35.470Z,14.28
2023-03-20T11:07:35.454Z,14.25
2023-03-20T11:08:35.430Z,14.14
2023-03-20T11:09:35.421Z,14.19
2023-03-20T11:10:35.681Z,14.32
2023-03-20T11:11:35.384Z,14.46
2023-03-20T11:12:35.361Z,14.61
2023-03-20T11:13:35.344Z,14.87
2023-03-20T11:14:35.329Z,14.67
2023-03-20T11:15:35.319Z,14.61
2023-03-20T11:16:35.303Z,14.60
2023-03-20T11:17:35.281Z,14.43
2023-03-20T11:18:35.247Z,14.46
2023-03-20T11:19:35.238Z,14.25
2023-03-20T11:20:35.465Z,14.10
2023-03-20T11:21:35.212Z,13.95
2023-03-20T11:22:35.220Z,13.73
2023-03-20T11:23:35.167Z,13.73
2023-03-20T11:24:35.147Z,13.71
2023-03-20T11:25:35.138Z,13.77
2023-03-20T11:26:35.114Z,13.79
2023-03-20T11:27:35.089Z,13.79
2023-03-20T11:28:35.075Z,13.80
2023-03-20T11:29:35.078Z,13.65
2023-03-20T11:30:35.265Z,13.54
2023-03-20T11:31:35.085Z,13.54
2023-03-20T11:32:35.065Z,13.63
2023-03-20T11:33:34.981Z,13.59
2023-03-20T11:34:34.946Z,13.52
2023-03-20T11:35:35.065Z,13.55
2023-03-20T11:36:34.915Z,13.62
2023-03-20T11:37:34.900Z,13.61
2023-03-20T11:38:34.867Z,13.54
2023-03-20T11:39:34.874Z,13.55
2023-03-20T11:40:35.238Z,13.49
2023-03-20T11:41:34.807Z,13.49
2023-03-20T11:42:34.793Z,13.38
2023-03-20T11:43:34.769Z,13.36
2023-03-20T11:44:34.744Z,13.32
2023-03-20T11:45:34.761Z,13.30
2023-03-20T11:46:34.709Z,13.22
2023-03-20T11:47:34.700Z,13.27
2023-03-20T11:48:34.775Z,13.33
2023-03-20T11:49:34.640Z,13.32
2023-03-20T11:50:34.796Z,13.65
2023-03-20T11:51:34.602Z,13.76
2023-03-20T11:52:34.573Z,14.01
2023-03-20T11:53:34.568Z,14.14
2023-03-20T11:54:34.568Z,14.50
2023-03-20T11:55:34.533Z,14.78
2023-03-20T11:56:34.498Z,14.72
2023-03-20T11:57:34.490Z,14.78
2023-03-20T11:58:34.458Z,14.81
2023-03-20T11:59:34.456Z,14.99
2023-03-20T12:00:34.777Z,15.11
2023-03-20T12:01:34.425Z,15.05
2023-03-20T12:02:34.387Z,14.88
2023-03-20T12:03:34.426Z,14.72
2023-03-20T12:04:34.348Z,14.54
2023-03-20T12:05:34.341Z,14.52
2023-03-20T12:06:34.323Z,14.67
2023-03-20T12:07:34.303Z,14.88
2023-03-20T12:08:34.283Z,15.11
2023-03-20T12:09:34.269Z,15.09
2023-03-20T12:10:34.518Z,15.11
2023-03-20T12:11:34.233Z,15.21
2023-03-20T12:12:34.225Z,15.05
2023-03-20T12:13:34.190Z,14.95
2023-03-20T12:14:34.192Z,14.87
2023-03-20T12:15:34.297Z,14.84
2023-03-20T12:16:34.218Z,14.68
2023-03-20T12:17:34.129Z,14.71
2023-03-20T12:18:34.168Z,14.60
2023-03-20T12:19:34.087Z,14.56
2023-03-20T12:20:34.252Z,14.49
2023-03-20T12:21:34.058Z,14.52
2023-03-20T12:22:34.060Z,14.52
2023-03-20T12:23:34.035Z,14.60
2023-03-20T12:24:34.023Z,14.61
2023-03-20T12:25:33.998Z,14.72
2023-03-20T12:26:33.976Z,14.74
2023-03-20T12:27:34.865Z,14.67
2023-03-20T12:28:33.944Z,14.46
2023-03-20T12:29:33.914Z,14.39
2023-03-20T12:30:34.146Z,14.50
2023-03-20T12:31:33.980Z,14.62
2023-03-20T12:32:33.910Z,14.74
2023-03-20T12:33:33.845Z,14.83
2023-03-20T12:34:33.833Z,14.81
2023-03-20T12:35:33.833Z,14.78
2023-03-20T12:36:33.787Z,14.90
2023-03-20T12:37:33.773Z,15.13
2023-03-20T12:38:33.761Z,15.15
2023-03-20T12:39:33.731Z,15.27
2023-03-20T12:40:34.026Z,15.30
2023-03-20T12:41:33.691Z,15.21
2023-03-20T12:42:33.694Z,15.13
2023-03-20T12:43:33.648Z,15.20
2023-03-20T12:44:33.636Z,15.02
2023-03-20T12:45:33.631Z,14.88
2023-03-20T12:46:33.622Z,14.91
2023-03-20T12:47:33.576Z,14.95
2023-03-20T12:48:33.560Z,14.94
2023-03-20T12:49:33.537Z,15.11
2023-03-20T12:50:33.856Z,14.94
2023-03-20T12:51:33.498Z,15.03
2023-03-20T12:52:33.500Z,15.05
2023-03-20T12:53:33.479Z,14.93
2023-03-20T12:54:33.456Z,14.91
2023-03-20T12:55:33.461Z,15.03